createdAt,value
2023-03-18T00:00:43.620Z,20.15
2023-03-18T00:03:10.848Z,19.80
2023-03-18T00:05:38.245Z,19.27
2023-03-18T00:08:06.640Z,19.90
2023-03-18T00:10:35.229Z,20.15
2023-03-18T00:13:04.707Z,20.15
2023-03-18T00:15:31.565Z,19.48
2023-03-18T00:17:59.858Z,21.00
2023-03-18T00:20:38.747Z,19.45
2023-03-18T00:23:09.328Z,20.13
2023-03-18T00:25:37.742Z,19.48
2023-03-18T00:28:06.537Z,19.27
2023-03-18T00:30:34.760Z,19.88
2023-03-18T00:33:01.990Z,20.50
2023-03-18T00:35:30.542Z,20.10
2023-03-18T00:37:58.705Z,19.88
2023-03-18T00:40:42.884Z,20.42
2023-03-18T00:43:11.196Z,19.92
2023-03-18T00:45:40.243Z,20.23
2023-03-18T00:48:07.881Z,19.90
2023-03-18T00:50:37.620Z,19.60
2023-03-18T00:53:04.596Z,19.63
2023-03-18T00:55:32.463Z,19.25
2023-03-18T00:57:59.220Z,20.75
2023-03-18T01:00:26.256Z,20.05
2023-03-18T01:02:53.876Z,19.08
2023-03-18T01:05:21.027Z,20.05
2023-03-18T01:07:48.222Z,19.63
2023-03-18T01:10:16.084Z,19.45
2023-03-18T01:12:46.613Z,19.95
2023-03-18T01:15:16.857Z,19.67
2023-03-18T01:17:44.199Z,19.52
2023-03-18T01:20:13.125Z,18.42
2023-03-18T01:22:43.309Z,19.10
2023-03-18T01:25:11.720Z,19.40
2023-03-18T01:27:38.773Z,19.58
2023-03-18T01:30:06.900Z,17.90
2023-03-18T01:32:34.391Z,18.83
2023-03-18T01:35:01.418Z,19.38
2023-03-18T01:37:28.958Z,17.73
2023-03-18T01:39:55.984Z,18.40
2023-03-18T01:42:22.914Z,19.70
2023-03-18T01:44:49.839Z,17.73
2023-03-18T01:47:21.048Z,17.75
2023-03-18T01:49:50.245Z,17.33
2023-03-18T01:52:24.800Z,18.00
2023-03-18T01:54:59.712Z,18.83
2023-03-18T01:57:27.887Z,20.70
2023-03-18T01:59:56.118Z,21.15
2023-03-18T02:02:23.319Z,20.95
2023-03-18T02:04:53.785Z,19.23
2023-03-18T02:07:31.954Z,18.73
2023-03-18T02:10:02.767Z,20.13
2023-03-18T02:12:33.418Z,19.60
2023-03-18T02:15:02.644Z,19.33
2023-03-18T02:17:33.300Z,19.58
2023-03-18T02:20:38.754Z,19.92
2023-03-18T02:23:23.502Z,19.67
2023-03-18T02:26:13.617Z,18.73
2023-03-18T02:28:41.598Z,20.77
2023-03-18T02:31:11.960Z,20.15
2023-03-18T02:33:41.913Z,22.98
2023-03-18T02:36:16.092Z,24.13
2023-03-18T02:38:44.094Z,23.55
2023-03-18T02:41:24.989Z,22.80
2023-03-18T02:43:52.125Z,23.83
2023-03-18T02:46:41.606Z,24.75
2023-03-18T02:49:08.689Z,21.52
2023-03-18T02:51:37.264Z,22.85
2023-03-18T02:54:15.921Z,21.05
2023-03-18T02:56:43.924Z,20.83
2023-03-18T02:59:11.627Z,20.95
2023-03-18T03:01:39.837Z,20.20
2023-03-18T03:04:07.644Z,19.77
2023-03-18T03:06:35.171Z,18.75
2023-03-18T03:09:03.706Z,18.40
2023-03-18T03:11:30.704Z,18.33
2023-03-18T03:13:57.479Z,19.13
2023-03-18T03:16:24.350Z,19.60
2023-03-18T03:18:51.695Z,19.65
2023-03-18T03:21:18.632Z,19.27
2023-03-18T03:23:46.550Z,18.42
2023-03-18T03:26:13.799Z,19.02
2023-03-18T03:28:40.581Z,19.20
2023-03-18T03:31:07.363Z,19.35
2023-03-18T03:33:34.148Z,19.42
2023-03-18T03:36:01.081Z,20.17
2023-03-18T03:38:28.460Z,18.88
2023-03-18T03:40:55.278Z,19.95
2023-03-18T03:43:22.644Z,19.88
2023-03-18T03:45:49.647Z,20.38
2023-03-18T03:48:16.531Z,21.08
2023-03-18T03:50:43.263Z,20.75
2023-03-18T03:53:10.461Z,20.20
2023-03-18T03:55:37.843Z,21.10
2023-03-18T03:58:04.994Z,22.75
2023-03-18T04:00:33.223Z,22.23
2023-03-18T04:03:00.254Z,22.38
2023-03-18T04:05:27.270Z,21.17
2023-03-18T04:07:55.333Z,23.23
2023-03-18T04:10:22.771Z,23.05
2023-03-18T04:12:50.077Z,23.60
2023-03-18T04:15:19.750Z,21.55
2023-03-18T04:17:46.730Z,22.55
2023-03-18T04:20:14.812Z,23.10
2023-03-18T04:22:41.969Z,22.83
2023-03-18T04:25:11.074Z,23.30
2023-03-18T04:27:38.585Z,23.17
2023-03-18T04:30:08.326Z,22.73
2023-03-18T04:32:35.172Z,22.88
2023-03-18T04:35:02.697Z,24.27
2023-03-18T04:37:29.545Z,23.92
2023-03-18T04:39:56.545Z,22.88
2023-03-18T04:42:23.376Z,23.52
2023-03-18T04:44:50.103Z,21.52
2023-03-18T04:47:16.861Z,22.98
2023-03-18T04:49:43.973Z,22.80
2023-03-18T04:52:11.182Z,23.13
2023-03-18T04:54:39.074Z,22.67
2023-03-18T04:57:06.723Z,21.00
2023-03-18T04:59:34.105Z,21.77
2023-03-18T05:02:01.222Z,21.42
2023-03-18T05:04:28.282Z,20.95
2023-03-18T05:06:55.119Z,21.10
2023-03-18T05:09:22.131Z,21.45
2023-03-18T05:11:48.805Z,21.98
2023-03-18T05:14:15.600Z,22.83
2023-03-18T05:16:43.199Z,23.52
2023-03-18T05:19:10.685Z,23.48
2023-03-18T05:21:37.994Z,24.08
2023-03-18T05:24:04.949Z,24.65
2023-03-18T05:26:31.639Z,24.42
2023-03-18T05:28:59.357Z,23.60
2023-03-18T05:31:26.101Z,25.38
2023-03-18T05:33:52.875Z,25.55
2023-03-18T05:36:19.639Z,25.33
2023-03-18T05:38:46.724Z,26.33
2023-03-18T05:41:13.764Z,24.75
2023-03-18T05:43:40.465Z,25.45
2023-03-18T05:46:07.306Z,26.35
2023-03-18T05:48:34.180Z,24.90
2023-03-18T05:51:00.918Z,25.50
2023-03-18T05:53:27.702Z,24.67
2023-03-18T05:55:54.474Z,24.27
2023-03-18T05:58:21.243Z,24.48
2023-03-18T06:00:47.971Z,23.08
2023-03-18T06:03:14.901Z,24.95
2023-03-18T06:05:42.140Z,24.73
2023-03-18T06:08:08.972Z,23.60
2023-03-18T06:10:35.806Z,22.85
2023-03-18T06:13:02.497Z,24.02
2023-03-18T06:15:30.546Z,22.25
2023-03-18T06:17:57.615Z,22.60
2023-03-18T06:20:24.327Z,21.95
2023-03-18T06:22:51.677Z,21.40
2023-03-18T06:25:20.400Z,20.67
2023-03-18T06:27:48.028Z,20.50
2023-03-18T06:30:16.638Z,20.52
2023-03-18T06:32:46.217Z,19.92
2023-03-18T06:35:13.796Z,19.48
2023-03-18T06:37:41.212Z,20.45
2023-03-18T06:40:10.604Z,20.00
2023-03-18T06:42:37.761Z,20.48
2023-03-18T06:45:05.112Z,19.83
2023-03-18T06:47:31.840Z,20.10
2023-03-18T06:49:58.638Z,21.65
2023-03-18T06:52:25.470Z,22.35
2023-03-18T06:54:52.221Z,21.80
2023-03-18T06:57:20.385Z,22.17
2023-03-18T06:59:48.053Z,22.67
2023-03-18T07:02:15.488Z,21.98
2023-03-18T07:04:42.854Z,23.67
2023-03-18T07:07:09.765Z,24.63
2023-03-18T07:09:36.643Z,24.33
2023-03-18T07:12:03.538Z,23.83
2023-03-18T07:14:30.668Z,25.50
2023-03-18T07:16:57.543Z,24.98
2023-03-18T07:19:24.780Z,25.42
2023-03-18T07:21:52.041Z,26.67
2023-03-18T07:24:21.241Z,25.92
2023-03-18T07:26:50.302Z,25.60
2023-03-18T07:29:17.869Z,24.48
2023-03-18T07:31:45.021Z,23.25
2023-03-18T07:34:12.934Z,25.73
2023-03-18T07:36:39.694Z,24.25
2023-03-18T07:39:07.951Z,23.70
2023-03-18T07:41:37.610Z,24.38
2023-03-18T07:44:05.246Z,22.70
2023-03-18T07:46:32.075Z,22.45
2023-03-18T07:48:58.788Z,21.58
2023-03-18T07:51:26.381Z,22.70
2023-03-18T07:53:53.170Z,22.13
2023-03-18T07:56:20.528Z,22.13
2023-03-18T07:58:47.993Z,21.10
2023-03-18T08:01:18.439Z,21.88
2023-03-18T08:03:46.732Z,20.67
2023-03-18T08:06:15.479Z,20.42
2023-03-18T08:08:43.672Z,20.27
2023-03-18T08:11:11.285Z,21.92
2023-03-18T08:13:39.607Z,21.02
2023-03-18T08:16:06.834Z,20.20
2023-03-18T08:18:33.982Z,20.52
2023-03-18T08:21:01.039Z,19.85
2023-03-18T08:23:27.924Z,19.58
2023-03-18T08:25:54.692Z,19.45
2023-03-18T08:28:21.545Z,19.70
2023-03-18T08:30:48.840Z,19.00
2023-03-18T08:33:16.032Z,19.70
2023-03-18T08:35:43.004Z,19.25
2023-03-18T08:38:09.946Z,17.25
2023-03-18T08:40:36.714Z,18.95
2023-03-18T08:43:03.528Z,16.52
2023-03-18T08:45:30.785Z,17.73
2023-03-18T08:47:57.800Z,18.60
2023-03-18T08:50:28.498Z,19.35
2023-03-18T08:52:57.779Z,18.90
2023-03-18T08:55:35.098Z,19.25
2023-03-18T08:58:02.436Z,19.83
2023-03-18T09:00:29.452Z,19.73
2023-03-18T09:02:56.609Z,17.75
2023-03-18T09:05:24.030Z,19.05
2023-03-18T09:07:52.570Z,18.45
2023-03-18T09:10:20.348Z,22.55
2023-03-18T09:12:47.805Z,21.73
2023-03-18T09:15:14.989Z,22.63
2023-03-18T09:17:59.973Z,22.92
2023-03-18T09:20:29.081Z,23.25
2023-03-18T09:22:56.108Z,21.00
2023-03-18T09:25:22.957Z,22.20
2023-03-18T09:27:49.705Z,21.90
2023-03-18T09:30:16.573Z,21.38
2023-03-18T09:32:43.497Z,21.27
2023-03-18T09:35:13.249Z,19.83
2023-03-18T09:37:40.542Z,19.40
2023-03-18T09:40:08.438Z,19.42
2023-03-18T09:42:58.536Z,19.30
2023-03-18T09:45:57.167Z,19.20
2023-03-18T09:48:30.244Z,21.80
2023-03-18T09:51:05.979Z,22.90
2023-03-18T09:53:44.161Z,25.63
2023-03-18T09:56:32.436Z,24.88
2023-03-18T09:59:03.471Z,24.52
2023-03-18T10:01:34.771Z,23.85
2023-03-18T10:04:04.648Z,25.67
2023-03-18T10:06:31.753Z,23.98
2023-03-18T10:09:02.025Z,24.70
2023-03-18T10:11:44.020Z,24.30
2023-03-18T10:14:38.216Z,22.63
2023-03-18T10:17:20.720Z,23.02
2023-03-18T10:19:59.539Z,21.08
2023-03-18T10:22:29.923Z,18.35
2023-03-18T10:25:04.188Z,18.48
2023-03-18T10:28:01.170Z,18.10
2023-03-18T10:30:37.866Z,17.70
2023-03-18T10:33:17.980Z,15.98
2023-03-18T10:36:24.178Z,14.32
2023-03-18T10:38:53.594Z,13.45
2023-03-18T10:41:25.393Z,12.27
2023-03-18T10:43:55.293Z,12.68
2023-03-18T10:46:24.213Z,13.23
2023-03-18T10:49:00.097Z,14.32
2023-03-18T10:51:32.667Z,14.68
2023-03-18T10:54:28.753Z,14.60
2023-03-18T10:56:55.718Z,15.02
2023-03-18T10:59:24.766Z,14.93
2023-03-18T11:02:01.469Z,14.48
2023-03-18T11:04:30.702Z,14.82
2023-03-18T11:07:03.697Z,15.00
2023-03-18T11:09:33.487Z,15.93
2023-03-18T11:12:06.765Z,15.20
2023-03-18T11:14:37.443Z,15.40
2023-03-18T11:17:04.600Z,15.10
2023-03-18T11:19:38.536Z,13.77
2023-03-18T11:22:11.850Z,13.75
2023-03-18T11:24:42.355Z,12.85
2023-03-18T11:27:15.926Z,13.52
2023-03-18T11:29:53.990Z,13.13
2023-03-18T11:32:28.377Z,13.50
2023-03-18T11:35:00.645Z,13.88
2023-03-18T11:37:39.615Z,13.30
2023-03-18T11:40:28.134Z,13.55
2023-03-18T11:43:00.776Z,13.68
2023-03-18T11:45:48.740Z,12.35
2023-03-18T11:48:20.724Z,12.25
2023-03-18T11:51:27.172Z,11.25
2023-03-18T11:54:25.175Z,11.75
2023-03-18T11:56:58.599Z,11.80
2023-03-18T11:59:52.749Z,11.13
2023-03-18T12:02:58.739Z,10.68
2023-03-18T12:05:34.634Z,11.13
2023-03-18T12:08:13.439Z,11.30
2023-03-18T12:10:57.215Z,11.57
2023-03-18T12:13:35.727Z,12.35
2023-03-18T12:16:37.148Z,11.98
2023-03-18T12:19:16.066Z,11.27
2023-03-18T12:21:51.777Z,10.55
2023-03-18T12:24:21.586Z,10.48
2023-03-18T12:26:53.558Z,10.38
2023-03-18T12:29:52.501Z,9.75
2023-03-18T12:33:04.109Z,9.98
2023-03-18T12:35:38.425Z,9.40
2023-03-18T12:38:41.729Z,8.02
2023-03-18T12:41:27.935Z,7.70
2023-03-18T12:44:22.900Z,6.07
2023-03-18T12:46:54.806Z,5.85
2023-03-18T12:49:30.074Z,4.50
2023-03-18T12:52:03.740Z,5.28
2023-03-18T12:54:40.426Z,4.35
2023-03-18T12:57:36.032Z,4.15
2023-03-18T13:00:10.484Z,3.40
2023-03-18T13:02:55.753Z,3.83
2023-03-18T13:05:47.425Z,3.67
2023-03-18T13:11:26.242Z,4.30
2023-03-18T13:14:00.219Z,5.63
2023-03-18T13:16:28.542Z,5.07
2023-03-18T13:18:57.644Z,5.30
2023-03-18T13:21:30.481Z,6.13
2023-03-18T13:24:00.198Z,4.70
2023-03-18T13:26:53.150Z,5.28
2023-03-18T13:29:19.823Z,6.38
2023-03-18T13:32:04.868Z,7.10
2023-03-18T13:34:43.667Z,5.45
2023-03-18T13:37:17.554Z,5.28
2023-03-18T13:39:53.405Z,5.80
2023-03-18T13:42:28.689Z,5.07
2023-03-18T13:45:05.600Z,5.80
2023-03-18T13:47:35.523Z,4.25
2023-03-18T13:50:06.660Z,3.92
2023-03-18T13:52:58.088Z,3.35
2023-03-18T13:55:32.197Z,2.63
2023-03-18T13:58:18.223Z,2.45
2023-03-18T14:01:09.205Z,2.80
2023-03-18T14:03:42.321Z,2.60
2023-03-18T14:06:09.080Z,2.50
2023-03-18T14:08:47.154Z,2.70
2023-03-18T14:11:16.951Z,2.90
2023-03-18T14:13:45.187Z,2.58
2023-03-18T14:16:14.822Z,2.47
2023-03-18T14:18:43.102Z,3.58
2023-03-18T14:21:25.591Z,3.10
2023-03-18T14:24:21.576Z,3.13
2023-03-18T14:27:09.595Z,3.60
2023-03-18T14:29:43.297Z,3.70
2023-03-18T14:32:35.158Z,3.35
2023-03-18T14:35:28.289Z,3.40
2023-03-18T14:37:56.349Z,3.33
2023-03-18T14:40:23.170Z,3.40
2023-03-18T14:43:01.290Z,3.45
2023-03-18T14:45:35.950Z,3.40
2023-03-18T14:48:18.565Z,2.92
2023-03-18T14:50:49.568Z,3.40
2023-03-18T14:53:22.712Z,3.63
2023-03-18T14:55:51.482Z,3.10
2023-03-18T14:58:20.664Z,3.28
2023-03-18T15:00:51.610Z,3.55
2023-03-18T15:03:29.316Z,3.75
2023-03-18T15:06:00.423Z,3.50
2023-03-18T15:08:46.477Z,3.65
2023-03-18T15:11:14.171Z,4.00
2023-03-18T15:13:42.374Z,3.80
2023-03-18T15:16:19.744Z,3.80
2023-03-18T15:18:52.902Z,3.60
2023-03-18T15:21:30.201Z,3.42
2023-03-18T15:24:04.246Z,3.35
2023-03-18T15:26:30.954Z,3.80
2023-03-18T15:29:00.337Z,3.60
2023-03-18T15:31:40.162Z,3.67
2023-03-18T15:34:27.223Z,3.30
2023-03-18T15:37:03.351Z,3.40
2023-03-18T15:39:36.063Z,3.42
2023-03-18T15:42:13.525Z,2.80
2023-03-18T15:44:43.233Z,2.80
2023-03-18T15:47:18.418Z,2.90
2023-03-18T15:49:54.410Z,2.90
2023-03-18T15:52:25.533Z,3.47
2023-03-18T15:54:53.424Z,2.80
2023-03-18T15:57:35.022Z,2.65
2023-03-18T16:02:29.832Z,2.70
2023-03-18T16:05:29.105Z,2.90
2023-03-18T16:07:56.020Z,2.88
2023-03-18T16:10:25.636Z,2.60
2023-03-18T16:13:00.563Z,2.70
2023-03-18T16:15:28.123Z,3.00
2023-03-18T16:17:56.204Z,2.63
2023-03-18T16:20:31.357Z,2.80
2023-03-18T16:22:59.744Z,2.90
2023-03-18T16:25:26.906Z,3.20
2023-03-18T16:27:58.762Z,2.88
2023-03-18T16:30:30.949Z,2.60
2023-03-18T16:32:58.705Z,2.67
2023-03-18T16:35:30.701Z,2.70
2023-03-18T16:37:57.768Z,2.67
2023-03-18T16:40:30.027Z,2.58
2023-03-18T16:42:56.827Z,2.47
2023-03-18T16:45:33.129Z,2.50
2023-03-18T16:48:04.299Z,2.85
2023-03-18T16:50:35.864Z,2.72
2023-03-18T16:53:03.736Z,3.17
2023-03-18T16:55:31.475Z,2.72
2023-03-18T16:58:02.560Z,2.42
2023-03-18T17:00:31.797Z,2.58
2023-03-18T17:02:59.733Z,2.53
2023-03-18T17:05:27.580Z,2.30
2023-03-18T17:07:54.443Z,2.80
2023-03-18T17:10:24.189Z,2.50
2023-03-18T17:13:05.790Z,2.30
2023-03-18T17:18:01.612Z,2.92
2023-03-18T17:20:31.236Z,2.50
2023-03-18T17:23:01.172Z,2.70
2023-03-18T17:25:30.380Z,2.67
2023-03-18T17:27:58.802Z,2.55
2023-03-18T17:30:33.825Z,2.15
2023-03-18T17:33:02.671Z,2.70
2023-03-18T17:35:29.890Z,2.67
2023-03-18T17:37:57.149Z,2.47
2023-03-18T17:40:28.333Z,2.40
2023-03-18T17:42:55.123Z,3.10
2023-03-18T17:45:28.806Z,2.47
2023-03-18T17:48:11.520Z,2.53
2023-03-18T17:50:38.473Z,2.63
2023-03-18T17:53:05.293Z,2.55
2023-03-18T17:55:32.345Z,3.00
2023-03-18T17:57:59.783Z,2.63
2023-03-18T18:00:27.241Z,2.70
2023-03-18T18:02:54.669Z,2.80
2023-03-18T18:05:23.259Z,2.95
2023-03-18T18:07:51.401Z,4.47
2023-03-18T18:10:20.474Z,4.88
2023-03-18T18:12:49.834Z,4.80
2023-03-18T18:15:25.433Z,3.65
2023-03-18T18:17:53.307Z,3.80
2023-03-18T18:20:21.684Z,4.47
2023-03-18T18:22:53.179Z,5.20
2023-03-18T18:25:21.945Z,4.03
2023-03-18T18:27:49.736Z,3.83
2023-03-18T18:30:20.128Z,3.78
2023-03-18T18:32:46.836Z,3.92
2023-03-18T18:35:19.224Z,4.30
2023-03-18T18:37:47.591Z,4.45
2023-03-18T18:40:16.289Z,4.05
2023-03-18T18:42:46.404Z,4.60
2023-03-18T18:45:19.253Z,4.47
2023-03-18T18:47:46.435Z,4.63
2023-03-18T18:50:19.640Z,4.30
2023-03-18T18:52:47.249Z,4.30
2023-03-18T18:55:14.251Z,5.07
2023-03-18T18:57:42.781Z,4.93
2023-03-18T19:00:21.989Z,4.70
2023-03-18T19:02:53.237Z,3.40
2023-03-18T19:05:20.035Z,3.40
2023-03-18T19:07:46.844Z,3.15
2023-03-18T19:10:15.979Z,2.85
2023-03-18T19:12:47.189Z,3.47
2023-03-18T19:15:15.657Z,2.70
2023-03-18T19:17:43.350Z,2.47
2023-03-18T19:20:28.628Z,2.50
2023-03-18T19:22:56.902Z,2.70
2023-03-18T19:25:25.748Z,2.70
2023-03-18T19:27:54.064Z,3.08
2023-03-18T19:30:24.657Z,3.20
2023-03-18T19:32:52.288Z,3.10
2023-03-18T19:35:19.087Z,3.08
2023-03-18T19:37:47.812Z,3.70
2023-03-18T19:40:30.155Z,3.42
2023-03-18T19:42:57.109Z,3.35
2023-03-18T19:45:23.962Z,3.50
2023-03-18T19:47:51.081Z,3.70
2023-03-18T19:50:20.035Z,3.63
2023-03-18T19:52:46.983Z,3.72
2023-03-18T19:55:15.913Z,3.45
2023-03-18T19:57:48.137Z,3.58
2023-03-18T20:00:24.755Z,3.17
2023-03-18T20:02:51.676Z,3.60
2023-03-18T20:05:21.366Z,3.53
2023-03-18T20:07:50.294Z,3.50
2023-03-18T20:10:18.831Z,3.53
2023-03-18T20:12:49.532Z,4.55
2023-03-18T20:15:22.779Z,3.87
2023-03-18T20:17:51.087Z,3.65
2023-03-18T20:20:23.851Z,4.55
2023-03-18T20:23:04.788Z,5.50
2023-03-18T20:25:42.865Z,5.53
2023-03-18T20:28:18.974Z,5.30
2023-03-18T20:30:47.350Z,5.40
2023-03-18T20:33:15.238Z,5.53
2023-03-18T20:35:44.398Z,5.30
2023-03-18T20:38:35.328Z,4.65
2023-03-18T20:41:03.154Z,4.97
2023-03-18T20:43:30.267Z,5.18
2023-03-18T20:45:58.705Z,5.70
2023-03-18T20:48:25.757Z,5.72
2023-03-18T20:50:53.070Z,6.43
2023-03-18T20:53:25.020Z,6.03
2023-03-18T20:55:52.207Z,5.63
2023-03-18T20:58:21.976Z,5.68
2023-03-18T21:00:48.933Z,5.85
2023-03-18T21:03:26.004Z,5.43
2023-03-18T21:05:57.841Z,5.90
2023-03-18T21:08:26.100Z,6.53
2023-03-18T21:10:54.073Z,6.07
2023-03-18T21:13:35.545Z,6.68
2023-03-18T21:16:04.198Z,6.22
2023-03-18T21:18:30.892Z,6.70
2023-03-18T21:20:58.192Z,7.00
2023-03-18T21:23:31.749Z,6.93
2023-03-18T21:25:58.980Z,7.55
2023-03-18T21:28:28.285Z,7.20
2023-03-18T21:30:58.294Z,7.45
2023-03-18T21:33:31.349Z,6.38
2023-03-18T21:35:58.793Z,7.18
2023-03-18T21:38:35.004Z,7.32
2023-03-18T21:41:02.216Z,6.50
2023-03-18T21:43:33.838Z,6.15
2023-03-18T21:48:29.088Z,5.50
2023-03-18T21:50:56.484Z,5.63
2023-03-18T21:53:24.309Z,5.72
2023-03-18T21:55:52.188Z,6.10
2023-03-18T21:58:24.260Z,5.22
2023-03-18T22:00:53.898Z,5.15
2023-03-18T22:03:22.937Z,4.53
2023-03-18T22:05:52.114Z,4.75
2023-03-18T22:08:20.251Z,5.50
2023-03-18T22:10:48.992Z,6.30
2023-03-18T22:13:21.407Z,7.03
2023-03-18T22:15:50.388Z,7.30
2023-03-18T22:18:17.553Z,7.45
2023-03-18T22:20:46.079Z,7.35
2023-03-18T22:23:14.829Z,7.90
2023-03-18T22:25:41.988Z,7.50
2023-03-18T22:28:09.024Z,6.78
2023-03-18T22:30:35.785Z,6.70
2023-03-18T22:33:04.295Z,6.38
2023-03-18T22:35:32.809Z,6.30
2023-03-18T22:37:59.903Z,5.82
2023-03-18T22:40:29.385Z,7.15
2023-03-18T22:42:58.462Z,7.40
2023-03-18T22:45:33.714Z,6.90
2023-03-18T22:48:04.433Z,7.20
2023-03-18T22:50:34.555Z,6.80
2023-03-18T22:53:05.591Z,6.45
2023-03-18T22:55:36.603Z,6.78
2023-03-18T22:58:03.577Z,7.75
2023-03-18T23:00:39.034Z,7.97
2023-03-18T23:03:28.656Z,8.10
2023-03-18T23:05:57.058Z,9.00
2023-03-18T23:08:24.592Z,9.40
2023-03-18T23:10:52.950Z,10.38
2023-03-18T23:13:27.556Z,11.23
2023-03-18T23:15:54.410Z,12.13
2023-03-18T23:18:23.469Z,12.35
2023-03-18T23:20:51.731Z,13.13
2023-03-18T23:23:20.959Z,13.13
2023-03-18T23:25:49.089Z,14.18
2023-03-18T23:28:16.124Z,14.75
2023-03-18T23:30:46.741Z,14.27
2023-03-18T23:33:13.901Z,15.18
2023-03-18T23:35:41.750Z,15.63
2023-03-18T23:38:08.521Z,15.43
2023-03-18T23:40:35.464Z,15.18
2023-03-18T23:43:02.302Z,15.65
2023-03-18T23:45:29.465Z,15.95
2023-03-18T23:47:56.446Z,16.20
2023-03-18T23:50:23.541Z,16.52
2023-03-18T23:52:50.362Z,17.38
2023-03-18T23:55:33.241Z,17.30
2023-03-18T23:58:04.795Z,17.23
